Time;durP1;ratioP1;P1;durP2;ratioP2;P2;SDS_P1;SDS_P2;PMS_P1;PMS_P2;Temp;Humidity;BMP_temperature;BMP_pressure;BME280_temperature;BME280_humidity;BME280_pressure;Samples;Min_cycle;Max_cycle;Signal;HPM_P1;HPM_P2
2023/06/25 00:01:59;;;;;;;28.02;11.70;;;;;;;19.42;100.00;101663.25;6246159;23;20012;-76
2023/06/25 00:04:25;;;;;;;24.58;12.23;;;;;;;19.39;100.00;101660.78;6218588;23;20015;-75
2023/06/25 00:06:50;;;;;;;28.17;11.88;;;;;;;19.41;100.00;101662.38;6192407;23;20016;-75
2023/06/25 00:09:16;;;;;;;27.02;13.57;;;;;;;19.50;100.00;101663.31;6218080;23;20012;-75
2023/06/25 00:11:42;;;;;;;30.75;13.90;;;;;;;19.42;100.00;101657.69;6218522;23;20011;-75
2023/06/25 00:14:09;;;;;;;34.53;13.55;;;;;;;19.28;100.00;101657.22;6218105;23;20019;-75
2023/06/25 00:16:34;;;;;;;37.33;13.70;;;;;;;19.21;100.00;101655.25;6218802;23;20008;-74
2023/06/25 00:19:00;;;;;;;29.15;13.77;;;;;;;19.18;100.00;101661.09;6192270;23;20095;-76
2023/06/25 00:21:26;;;;;;;22.40;12.70;;;;;;;19.15;100.00;101653.09;6192993;23;20091;-74
2023/06/25 00:23:52;;;;;;;25.23;12.50;;;;;;;19.01;100.00;101648.97;6193314;23;20016;-74
2023/06/25 00:26:17;;;;;;;27.98;14.45;;;;;;;19.06;100.00;101647.44;6217847;23;20016;-74
2023/06/25 00:28:43;;;;;;;24.80;13.75;;;;;;;19.03;100.00;101642.22;6244874;23;20020;-76
2023/06/25 00:31:09;;;;;;;29.75;13.05;;;;;;;19.00;100.00;101641.66;6244835;23;20012;-74
2023/06/25 00:33:35;;;;;;;28.98;13.05;;;;;;;19.03;100.00;101646.91;6244271;23;20020;-75
2023/06/25 00:36:06;;;;;;;27.65;13.00;;;;;;;18.99;100.00;101646.34;6218504;23;20027;-75
2023/06/25 00:38:33;;;;;;;29.38;14.15;;;;;;;18.97;100.00;101640.09;6245040;23;20741;-76
2023/06/25 00:40:58;;;;;;;28.98;13.30;;;;;;;18.89;100.00;101646.41;6218715;23;20440;-75
2023/06/25 00:43:24;;;;;;;31.58;13.05;;;;;;;18.91;100.00;101644.34;6192693;23;20015;-75
2023/06/25 00:45:49;;;;;;;36.58;13.38;;;;;;;18.85;100.00;101642.19;6218690;23;20142;-75
2023/06/25 00:48:14;;;;;;;25.52;13.18;;;;;;;18.78;100.00;101640.19;6168342;23;20453;-74
2023/06/25 00:50:40;;;;;;;30.52;13.60;;;;;;;18.73;100.00;101637.88;6218153;23;20016;-74
2023/06/25 00:53:08;;;;;;;27.42;13.02;;;;;;;18.71;100.00;101631.63;6218942;23;20087;-75
2023/06/25 00:55:34;;;;;;;36.92;14.82;;;;;;;18.67;100.00;101635.72;6167530;23;20490;-75
2023/06/25 00:58:00;;;;;;;30.25;13.68;;;;;;;18.76;100.00;101631.13;6169010;23;20014;-74
2023/06/25 01:00:28;;;;;;;27.30;13.77;;;;;;;18.59;100.00;101630.06;6193484;23;20032;-75
2023/06/25 01:02:54;;;;;;;30.70;13.60;;;;;;;18.54;100.00;101630.53;6217896;23;20044;-74
2023/06/25 01:05:25;;;;;;;27.40;13.48;;;;;;;18.64;100.00;101622.16;6217925;23;20019;-76
2023/06/25 01:07:53;;;;;;;33.47;14.47;;;;;;;18.48;100.00;101622.81;6217418;23;20352;-75
2023/06/25 01:10:19;;;;;;;29.42;14.35;;;;;;;18.49;100.00;101617.13;6245131;23;20012;-76
2023/06/25 01:12:45;;;;;;;28.42;14.23;;;;;;;18.55;100.00;101619.28;6202862;23;20024;-74
2023/06/25 01:15:10;;;;;;;26.98;13.55;;;;;;;18.45;100.00;101615.72;6157414;23;20013;-75
2023/06/25 01:17:37;;;;;;;28.10;13.75;;;;;;;18.34;100.00;101611.22;6183054;23;20033;-75
2023/06/25 01:20:09;;;;;;;33.03;15.15;;;;;;;18.21;100.00;101610.72;6157378;23;20009;-75
2023/06/25 01:22:34;;;;;;;28.35;14.25;;;;;;;18.29;100.00;101607.19;6184339;23;20027;-76
2023/06/25 01:24:59;;;;;;;28.90;14.25;;;;;;;18.28;100.00;101608.19;6158606;23;20040;-76
2023/06/25 01:27:26;;;;;;;32.50;14.70;;;;;;;18.18;100.00;101614.69;6183772;23;20546;-76
2023/06/25 01:29:51;;;;;;;32.80;14.70;;;;;;;18.24;100.00;101612.31;6182781;23;20024;-76
2023/06/25 01:32:18;;;;;;;30.77;15.25;;;;;;;18.18;100.00;101606.38;6133375;23;20021;-76
2023/06/25 01:34:44;;;;;;;24.08;14.07;;;;;;;18.11;100.00;101596.91;6159493;23;20009;-76
2023/06/25 01:37:11;;;;;;;29.52;14.20;;;;;;;18.13;100.00;101599.50;6184846;23;20009;-76
2023/06/25 01:39:37;;;;;;;33.53;14.82;;;;;;;18.18;100.00;101595.28;6184850;23;20005;-76
2023/06/25 01:42:03;;;;;;;34.05;15.55;;;;;;;18.14;100.00;101595.72;6182580;23;20016;-76
2023/06/25 01:44:31;;;;;;;26.70;15.13;;;;;;;18.03;100.00;101585.69;6183079;23;20012;-75
2023/06/25 01:46:57;;;;;;;28.58;15.15;;;;;;;18.24;100.00;101590.16;6158713;23;20009;-74
2023/06/25 01:49:24;;;;;;;29.27;15.45;;;;;;;18.09;100.00;101582.31;6158448;23;20444;-75
2023/06/25 01:51:50;;;;;;;43.75;15.32;;;;;;;18.11;100.00;101585.81;6182786;23;20024;-76
2023/06/25 01:54:16;;;;;;;30.60;15.77;;;;;;;18.15;100.00;101580.81;6157571;23;20456;-76
2023/06/25 01:56:42;;;;;;;30.00;16.10;;;;;;;18.24;100.00;101576.28;6185265;23;20009;-76
2023/06/25 01:59:08;;;;;;;30.92;14.93;;;;;;;18.23;100.00;101577.28;6158103;23;20016;-76
2023/06/25 02:01:34;;;;;;;31.73;15.60;;;;;;;18.13;100.00;101572.66;6157673;23;20017;-75
2023/06/25 02:04:00;;;;;;;33.55;15.70;;;;;;;18.07;100.00;101575.19;6158498;23;20016;-76
2023/06/25 02:06:25;;;;;;;37.63;16.25;;;;;;;17.99;100.00;101567.66;6181738;23;20017;-76
2023/06/25 02:08:51;;;;;;;37.67;16.13;;;;;;;17.96;100.00;101568.81;6184257;23;20059;-75
2023/06/25 02:11:16;;;;;;;34.65;16.88;;;;;;;17.90;100.00;101568.56;6157762;23;20036;-76
2023/06/25 02:13:41;;;;;;;32.45;16.08;;;;;;;17.98;100.00;101566.75;6182388;23;20385;-76
2023/06/25 02:16:07;;;;;;;32.95;16.35;;;;;;;17.85;100.00;101557.88;6181153;23;20051;-76
2023/06/25 02:18:33;;;;;;;31.67;17.25;;;;;;;17.72;100.00;101562.91;6183002;23;20032;-76
2023/06/25 02:20:58;;;;;;;32.42;15.57;;;;;;;17.64;100.00;101555.34;6184222;23;20497;-76
2023/06/25 02:23:24;;;;;;;29.45;15.48;;;;;;;17.63;100.00;101548.94;6184103;23;20013;-76
2023/06/25 02:25:52;;;;;;;35.78;16.20;;;;;;;17.71;100.00;101552.84;6157285;23;20009;-74
2023/06/25 02:28:17;;;;;;;31.60;16.08;;;;;;;17.68;100.00;101551.25;6158290;23;20445;-75
2023/06/25 02:30:43;;;;;;;30.80;15.93;;;;;;;17.73;100.00;101546.13;6157617;23;20016;-75
2023/06/25 02:33:09;;;;;;;28.00;16.65;;;;;;;17.68;100.00;101550.38;6182796;23;20021;-75
2023/06/25 02:35:34;;;;;;;31.85;17.27;;;;;;;17.67;100.00;101534.78;6157188;23;20381;-76
2023/06/25 02:38:00;;;;;;;34.08;17.33;;;;;;;17.63;100.00;101540.63;6182395;23;20012;-74
2023/06/25 02:40:27;;;;;;;33.08;17.38;;;;;;;17.49;100.00;101535.56;6183382;23;20063;-75
2023/06/25 02:42:53;;;;;;;37.45;17.77;;;;;;;17.59;100.00;101533.66;6157972;23;20092;-75
2023/06/25 02:45:19;;;;;;;38.42;18.50;;;;;;;17.42;100.00;101529.75;6182297;23;20068;-75
2023/06/25 02:47:44;;;;;;;39.45;17.77;;;;;;;17.37;100.00;101534.88;6183459;23;20013;-75
2023/06/25 02:50:09;;;;;;;31.58;17.10;;;;;;;17.36;100.00;101524.81;6184223;23;20013;-75
2023/06/25 02:52:35;;;;;;;38.10;18.83;;;;;;;17.34;100.00;101532.41;6185985;23;20009;-75
2023/06/25 02:55:01;;;;;;;35.30;15.20;;;;;;;17.49;100.00;101538.31;6183014;23;20013;-74
2023/06/25 02:57:30;;;;;;;27.35;16.27;;;;;;;17.34;100.00;101518.56;6159437;23;20016;-74
2023/06/25 02:59:56;;;;;;;37.75;18.13;;;;;;;17.29;100.00;101523.66;6159654;23;20013;-75
2023/06/25 03:02:21;;;;;;;26.75;16.17;;;;;;;17.37;100.00;101522.94;6208889;23;20027;-75
2023/06/25 03:04:47;;;;;;;33.20;17.38;;;;;;;17.22;100.00;101519.75;6186242;23;20016;-75
2023/06/25 03:07:13;;;;;;;39.13;17.00;;;;;;;17.20;100.00;101525.44;6184293;23;20124;-75
2023/06/25 03:09:38;;;;;;;31.15;17.00;;;;;;;17.16;100.00;101523.97;6159513;23;20463;-75
2023/06/25 03:12:04;;;;;;;27.92;17.35;;;;;;;17.23;100.00;101519.63;6186452;23;20013;-75
2023/06/25 03:14:30;;;;;;;30.75;15.95;;;;;;;17.24;100.00;101518.56;6193872;23;20420;-74
2023/06/25 03:16:56;;;;;;;29.27;16.48;;;;;;;17.27;100.00;101525.72;6218967;23;20034;-74
2023/06/25 03:19:21;;;;;;;35.65;18.20;;;;;;;17.19;100.00;101531.13;6219092;23;20098;-75
2023/06/25 03:21:47;;;;;;;29.75;16.58;;;;;;;17.02;100.00;101532.72;6245881;23;20016;-75
2023/06/25 03:24:12;;;;;;;28.33;16.60;;;;;;;17.12;100.00;101530.84;6218899;23;20035;-75
2023/06/25 03:26:38;;;;;;;28.67;16.67;;;;;;;17.13;100.00;101527.03;6192428;23;20026;-76
2023/06/25 03:29:03;;;;;;;34.45;16.58;;;;;;;17.14;100.00;101523.25;6218473;23;20004;-76
2023/06/25 03:31:29;;;;;;;31.75;17.40;;;;;;;17.15;100.00;101524.13;6169005;23;20024;-75
2023/06/25 03:33:54;;;;;;;35.70;17.38;;;;;;;17.09;100.00;101517.31;6245627;23;20015;-75
2023/06/25 03:36:20;;;;;;;30.30;17.55;;;;;;;17.03;100.00;101529.81;6194068;23;20023;-75
2023/06/25 03:38:45;;;;;;;29.45;16.35;;;;;;;17.16;100.00;101521.22;6245779;23;20016;-75
2023/06/25 03:41:11;;;;;;;29.75;18.27;;;;;;;17.02;100.00;101525.31;6245605;23;20020;-76
2023/06/25 03:43:36;;;;;;;30.67;16.10;;;;;;;17.20;100.00;101516.25;6169028;23;20016;-76
2023/06/25 03:46:02;;;;;;;34.13;18.02;;;;;;;17.18;100.00;101516.41;6218189;23;20080;-76
2023/06/25 03:48:27;;;;;;;35.28;18.70;;;;;;;17.19;100.00;101514.53;6218831;23;20023;-76
2023/06/25 03:50:52;;;;;;;29.42;17.75;;;;;;;17.22;100.00;101517.00;6194583;23;20512;-75
2023/06/25 03:53:18;;;;;;;28.52;15.77;;;;;;;17.34;100.00;101518.56;6218004;23;20008;-75
2023/06/25 03:55:43;;;;;;;31.45;17.63;;;;;;;17.24;100.00;101514.94;6192858;23;20008;-76
2023/06/25 03:58:09;;;;;;;29.88;18.02;;;;;;;17.26;100.00;101521.19;6218296;23;20008;-76
2023/06/25 04:00:34;;;;;;;30.63;17.23;;;;;;;17.29;100.00;101526.44;6217982;23;20008;-76
2023/06/25 04:03:00;;;;;;;31.17;18.05;;;;;;;17.29;100.00;101512.59;6194350;23;20020;-75
2023/06/25 04:05:25;;;;;;;36.15;17.70;;;;;;;17.41;100.00;101521.59;6245127;23;20012;-75
2023/06/25 04:07:51;;;;;;;28.58;17.17;;;;;;;17.31;100.00;101518.00;6244885;23;20390;-75
2023/06/25 04:10:16;;;;;;;29.48;17.10;;;;;;;17.31;100.00;101513.31;6193746;23;20044;-75
2023/06/25 04:12:42;;;;;;;35.00;18.25;;;;;;;17.24;100.00;101517.72;6192636;23;20016;-75
2023/06/25 04:15:08;;;;;;;30.58;18.08;;;;;;;17.33;100.00;101515.94;6193888;23;20008;-75
2023/06/25 04:17:33;;;;;;;34.03;18.65;;;;;;;17.44;100.00;101530.47;6245672;23;20012;-75
2023/06/25 04:19:59;;;;;;;32.53;18.50;;;;;;;17.51;100.00;101514.16;6219101;23;20008;-75
2023/06/25 04:22:24;;;;;;;34.00;20.25;;;;;;;17.60;100.00;101518.75;6192645;23;20012;-76
2023/06/25 04:24:50;;;;;;;37.60;21.40;;;;;;;17.68;100.00;101519.94;6245188;23;20018;-76
2023/06/25 04:27:16;;;;;;;38.15;20.38;;;;;;;17.79;100.00;101519.69;6168718;23;20029;-75
2023/06/25 04:29:41;;;;;;;35.58;19.55;;;;;;;17.81;100.00;101520.44;6245037;23;20091;-75
2023/06/25 04:32:07;;;;;;;42.50;21.90;;;;;;;17.81;100.00;101518.53;6193137;23;20016;-75
2023/06/25 04:34:32;;;;;;;40.33;22.27;;;;;;;17.79;100.00;101517.81;6216620;23;20014;-74
2023/06/25 04:36:58;;;;;;;44.50;23.88;;;;;;;17.85;100.00;101515.47;6193666;23;20015;-75
2023/06/25 04:39:23;;;;;;;36.40;23.13;;;;;;;17.89;100.00;101515.03;6169071;23;20012;-74
2023/06/25 04:41:49;;;;;;;34.38;20.77;;;;;;;18.04;100.00;101509.88;6244371;23;20344;-74
2023/06/25 04:44:14;;;;;;;40.17;20.98;;;;;;;18.12;100.00;101515.50;6167964;23;20412;-74
2023/06/25 04:46:39;;;;;;;46.17;24.08;;;;;;;18.14;100.00;101519.00;6192260;23;20015;-74
2023/06/25 04:49:05;;;;;;;45.00;24.98;;;;;;;18.18;100.00;101520.44;6192416;23;20087;-75
2023/06/25 04:51:30;;;;;;;52.33;25.08;;;;;;;18.30;100.00;101514.66;6168197;23;20112;-76
2023/06/25 04:53:56;;;;;;;53.15;31.60;;;;;;;18.49;100.00;101524.75;6192041;23;20308;-74
2023/06/25 04:56:21;;;;;;;56.83;30.77;;;;;;;18.44;100.00;101508.56;6218354;23;20044;-75
2023/06/25 04:58:46;;;;;;;56.08;30.80;;;;;;;18.52;100.00;101500.34;6193691;23;20011;-75
2023/06/25 05:01:12;;;;;;;54.20;29.45;;;;;;;18.71;100.00;101513.19;6216837;23;20032;-75
2023/06/25 05:03:38;;;;;;;50.38;28.67;;;;;;;18.80;100.00;101503.03;6167629;23;20444;-75
2023/06/25 05:06:04;;;;;;;60.42;30.60;;;;;;;18.86;100.00;101513.53;6143645;23;20086;-77
2023/06/25 05:08:29;;;;;;;61.55;28.83;;;;;;;18.94;100.00;101511.84;6217238;23;20012;-77
2023/06/25 05:10:57;;;;;;;53.03;28.67;;;;;;;18.99;100.00;101507.56;6193455;23;20016;-76
2023/06/25 05:13:23;;;;;;;56.58;27.58;;;;;;;19.08;100.00;101508.50;6192564;23;20020;-78
2023/06/25 05:15:48;;;;;;;42.17;25.23;;;;;;;19.18;100.00;101516.72;6216189;23;20016;-80
2023/06/25 05:18:14;;;;;;;49.28;27.48;;;;;;;19.33;100.00;101509.53;6192372;23;20582;-78
2023/06/25 05:20:40;;;;;;;52.88;31.55;;;;;;;19.38;100.00;101517.38;6218449;23;20012;-77
2023/06/25 05:23:06;;;;;;;49.42;31.63;;;;;;;19.93;100.00;101518.97;6190944;23;20012;-77
2023/06/25 05:25:33;;;;;;;50.50;30.95;;;;;;;20.61;100.00;101517.06;6191281;23;20019;-78
2023/06/25 05:28:01;;;;;;;50.72;30.92;;;;;;;21.13;100.00;101513.16;6192618;23;20008;-77
2023/06/25 05:30:28;;;;;;;51.13;29.27;;;;;;;21.64;100.00;101505.41;6244439;23;20011;-76
2023/06/25 05:32:54;;;;;;;42.95;27.83;;;;;;;21.10;100.00;101506.00;6194471;23;20016;-77
2023/06/25 05:35:19;;;;;;;47.50;25.88;;;;;;;21.48;100.00;101504.44;6218180;23;20027;-78
2023/06/25 05:37:45;;;;;;;40.92;25.77;;;;;;;21.94;100.00;101511.25;6218076;23;20008;-78
2023/06/25 05:40:11;;;;;;;38.33;22.75;;;;;;;22.62;100.00;101506.91;6218097;23;20432;-76
2023/06/25 05:42:37;;;;;;;37.22;22.08;;;;;;;22.90;100.00;101511.94;6218660;23;20043;-77
2023/06/25 05:45:02;;;;;;;36.40;21.00;;;;;;;23.38;100.00;101515.38;6244791;23;20024;-77
2023/06/25 05:47:28;;;;;;;43.38;21.70;;;;;;;23.42;100.00;101505.53;6193248;23;20115;-78
2023/06/25 05:49:53;;;;;;;29.92;18.17;;;;;;;23.41;100.00;101511.31;6193283;23;20093;-77
2023/06/25 05:52:19;;;;;;;33.08;18.30;;;;;;;23.39;100.00;101505.91;6168383;23;20031;-75
2023/06/25 05:54:44;;;;;;;28.88;18.05;;;;;;;23.18;100.00;101503.84;6243768;23;20039;-76
2023/06/25 05:57:09;;;;;;;28.05;17.65;;;;;;;23.63;100.00;101501.16;6217973;23;20016;-76
2023/06/25 05:59:35;;;;;;;28.75;15.93;;;;;;;23.89;100.00;101503.50;6167642;23;20036;-79
2023/06/25 06:02:01;;;;;;;34.13;16.23;;;;;;;24.03;98.95;101507.31;6192488;23;20039;-78
2023/06/25 06:04:26;;;;;;;30.90;16.30;;;;;;;23.82;99.74;101499.69;6168148;23;20034;-77
2023/06/25 06:06:52;;;;;;;28.63;14.88;;;;;;;24.41;95.78;101504.34;6190383;23;20103;-77
2023/06/25 06:09:17;;;;;;;27.90;14.13;;;;;;;24.79;91.02;101498.53;6242160;23;20341;-77
2023/06/25 06:11:43;;;;;;;27.90;14.57;;;;;;;24.90;90.53;101502.75;6189080;23;20351;-77
2023/06/25 06:14:08;;;;;;;27.45;14.02;;;;;;;25.65;86.16;101497.56;6186918;23;20081;-77
2023/06/25 06:16:34;;;;;;;27.70;13.38;;;;;;;25.24;85.89;101501.13;6131213;23;20020;-77
2023/06/25 06:19:00;;;;;;;24.45;12.30;;;;;;;25.47;84.66;101504.56;6180840;23;20017;-77
2023/06/25 06:21:25;;;;;;;25.75;13.52;;;;;;;25.53;84.46;101500.09;6179956;23;20024;-77
2023/06/25 06:23:52;;;;;;;21.50;12.32;;;;;;;25.45;84.72;101503.91;6155857;23;20025;-77
2023/06/25 06:26:17;;;;;;;23.13;12.93;;;;;;;25.16;85.79;101501.28;6154600;23;20107;-77
2023/06/25 06:28:43;;;;;;;25.83;12.05;;;;;;;25.44;84.52;101502.16;6180552;23;20037;-79
2023/06/25 06:31:08;;;;;;;27.42;11.43;;;;;;;25.47;80.75;101496.16;6156235;23;20071;-78
2023/06/25 06:33:34;;;;;;;24.08;11.68;;;;;;;25.35;82.94;101505.31;6156530;23;20013;-79
2023/06/25 06:35:59;;;;;;;22.52;12.45;;;;;;;25.23;81.57;101500.25;6181365;23;20100;-79
2023/06/25 06:38:25;;;;;;;20.33;11.75;;;;;;;25.69;80.23;101498.88;6179588;23;20013;-79
2023/06/25 06:40:50;;;;;;;22.02;11.82;;;;;;;25.88;78.54;101494.47;6157696;23;20024;-80
2023/06/25 06:43:16;;;;;;;19.85;10.70;;;;;;;26.32;76.11;101492.34;6155284;23;20136;-80
2023/06/25 06:45:41;;;;;;;19.67;11.50;;;;;;;25.97;77.39;101498.84;6156335;23;20013;-78
2023/06/25 06:48:07;;;;;;;28.80;11.77;;;;;;;25.40;80.50;101486.84;6183035;23;20156;-80
2023/06/25 06:50:33;;;;;;;68.70;13.10;;;;;;;26.17;79.65;101484.03;6156625;23;20013;-78
2023/06/25 06:52:58;;;;;;;18.35;11.50;;;;;;;25.61;82.36;101476.59;6182766;23;20019;-78
2023/06/25 06:55:24;;;;;;;20.20;11.23;;;;;;;27.01;77.93;101493.16;6182941;23;20433;-78
2023/06/25 06:57:49;;;;;;;19.45;10.85;;;;;;;26.82;74.67;101492.91;6182881;23;20072;-82
2023/06/25 07:00:17;;;;;;;18.45;10.18;;;;;;;27.17;70.29;101492.75;6181451;23;20036;-79
2023/06/25 07:02:43;;;;;;;20.30;9.70;;;;;;;26.62;70.94;101490.03;6157551;23;20013;-79
2023/06/25 07:05:09;;;;;;;14.18;9.35;;;;;;;27.43;66.62;101488.19;6179698;23;20019;-82
2023/06/25 07:07:34;;;;;;;17.25;9.32;;;;;;;27.27;64.40;101495.97;6180697;23;20013;-77
2023/06/25 07:10:00;;;;;;;14.75;9.80;;;;;;;27.34;64.52;101495.13;6181343;23;20092;-78
2023/06/25 07:12:25;;;;;;;18.85;10.23;;;;;;;27.78;63.35;101491.59;6188964;23;20013;-78
2023/06/25 07:14:50;;;;;;;20.02;10.32;;;;;;;27.44;65.25;101489.94;6216703;23;20045;-79
2023/06/25 07:17:16;;;;;;;20.83;9.95;;;;;;;28.21;63.76;101491.03;6166395;23;20145;-78
2023/06/25 07:19:41;;;;;;;17.98;9.90;;;;;;;28.40;62.30;101493.97;6190550;23;20072;-79
2023/06/25 07:22:07;;;;;;;19.55;9.55;;;;;;;27.51;62.69;101490.78;6192670;23;20043;-82
2023/06/25 07:24:32;;;;;;;15.95;9.23;;;;;;;27.24;63.61;101499.22;6214868;23;20005;-77
2023/06/25 07:26:58;;;;;;;19.15;9.30;;;;;;;27.65;62.01;101492.50;6191923;23;20015;-78
2023/06/25 07:29:23;;;;;;;17.40;10.55;;;;;;;28.27;60.82;101491.22;6191181;23;20082;-80
2023/06/25 07:31:49;;;;;;;16.98;9.30;;;;;;;28.19;60.85;101495.19;6217454;23;20032;-79
2023/06/25 07:34:14;;;;;;;17.85;9.40;;;;;;;28.34;58.68;101490.09;6164936;23;20016;-79
2023/06/25 07:36:40;;;;;;;22.73;9.98;;;;;;;29.38;57.35;101484.19;6219137;23;20083;-79
2023/06/25 07:39:06;;;;;;;18.08;9.30;;;;;;;29.03;57.48;101490.34;6218305;23;20576;-79
2023/06/25 07:41:31;;;;;;;16.60;8.13;;;;;;;28.75;57.64;101485.13;6219746;23;20031;-78
2023/06/25 07:43:56;;;;;;;13.15;7.40;;;;;;;28.75;58.92;101487.97;6217641;23;20008;-77
2023/06/25 07:46:22;;;;;;;12.60;7.45;;;;;;;28.98;57.37;101478.91;6193291;23;20008;-79
2023/06/25 07:48:48;;;;;;;13.80;7.40;;;;;;;29.74;54.92;101478.84;6193633;23;20459;-78
2023/06/25 07:51:13;;;;;;;11.48;6.90;;;;;;;28.87;56.25;101480.47;6244706;23;20040;-80
2023/06/25 07:53:39;;;;;;;16.05;7.50;;;;;;;29.23;56.85;101478.91;6168912;23;20039;-76
2023/06/25 07:56:04;;;;;;;15.52;7.07;;;;;;;29.52;53.65;101474.50;6192031;23;20339;-76
2023/06/25 07:58:30;;;;;;;16.50;7.55;;;;;;;29.40;53.20;101479.22;6193648;23;20419;-78
2023/06/25 08:00:55;;;;;;;13.73;6.65;;;;;;;29.62;54.22;101470.31;6193804;23;20375;-77
2023/06/25 08:03:24;;;;;;;15.13;7.78;;;;;;;29.18;56.96;101481.56;6217256;23;20027;-76
2023/06/25 08:05:49;;;;;;;13.90;6.25;;;;;;;30.30;52.14;101474.91;6192420;23;20015;-76
2023/06/25 08:08:15;;;;;;;10.30;6.43;;;;;;;29.68;51.84;101478.69;6218485;23;20008;-76
2023/06/25 08:10:40;;;;;;;15.18;7.10;;;;;;;29.84;52.40;101482.03;6217589;23;20020;-76
2023/06/25 08:13:05;;;;;;;11.35;6.85;;;;;;;30.53;51.94;101470.50;6202450;23;20048;-75
2023/06/25 08:15:31;;;;;;;13.18;6.43;;;;;;;30.33;51.86;101479.25;6158017;23;20108;-76
2023/06/25 08:17:56;;;;;;;8.77;6.05;;;;;;;30.32;52.44;101469.91;6181308;23;20333;-76
2023/06/25 08:20:22;;;;;;;13.73;6.57;;;;;;;30.22;51.71;101473.31;6133343;23;20381;-76
2023/06/25 08:22:47;;;;;;;12.38;6.80;;;;;;;30.30;50.28;101471.25;6185053;23;20009;-75
2023/06/25 08:25:24;;;;;;;11.50;7.18;;;;;;;30.02;52.49;101470.75;6158827;23;20087;-75
2023/06/25 08:27:50;;;;;;;11.60;6.93;;;;;;;29.54;51.90;101471.47;6182751;23;20009;-75
2023/06/25 08:30:17;;;;;;;10.77;6.55;;;;;;;29.82;51.49;101472.94;6186595;23;20067;-75
2023/06/25 08:32:42;;;;;;;9.45;6.68;;;;;;;30.18;50.61;101472.03;6184326;23;20400;-76
2023/06/25 08:35:08;;;;;;;9.52;6.53;;;;;;;29.99;50.67;101461.84;6182120;23;20013;-77
2023/06/25 08:37:34;;;;;;;13.55;6.25;;;;;;;31.80;48.07;101463.56;6184687;23;20009;-76
2023/06/25 08:39:59;;;;;;;11.73;7.25;;;;;;;29.97;51.67;101452.75;6156973;23;20322;-77
2023/06/25 08:42:26;;;;;;;11.70;7.60;;;;;;;29.92;52.57;101459.13;6182466;23;20024;-75
2023/06/25 08:44:52;;;;;;;11.35;7.50;;;;;;;29.87;52.55;101462.63;6183059;23;20009;-76
2023/06/25 08:47:25;;;;;;;16.48;7.40;;;;;;;30.22;51.04;101453.53;6157449;23;20024;-75
2023/06/25 08:49:53;;;;;;;11.45;7.78;;;;;;;30.05;52.92;101455.28;6157333;23;20043;-75
2023/06/25 08:52:20;;;;;;;13.52;7.90;;;;;;;29.99;52.11;101454.28;6184425;23;20084;-76
2023/06/25 08:54:46;;;;;;;16.35;10.43;;;;;;;30.50;50.28;101446.44;6207100;23;20009;-76
2023/06/25 08:57:12;;;;;;;14.10;6.90;;;;;;;31.03;51.61;101449.53;6183031;23;20013;-76
2023/06/25 08:59:37;;;;;;;15.65;7.75;;;;;;;30.82;50.93;101443.31;6183028;23;20013;-72
2023/06/25 09:02:03;;;;;;;18.90;6.95;;;;;;;30.90;49.81;101445.78;6133913;23;20021;-76
2023/06/25 09:04:28;;;;;;;12.55;6.18;;;;;;;31.83;48.53;101448.91;6157428;23;20075;-75
2023/06/25 09:06:54;;;;;;;13.05;7.55;;;;;;;31.71;46.28;101448.06;6158151;23;20016;-76
2023/06/25 09:09:20;;;;;;;18.55;7.50;;;;;;;31.44;47.09;101447.72;6182881;23;20013;-76
2023/06/25 09:11:46;;;;;;;10.93;6.53;;;;;;;31.67;48.58;101441.19;6158496;23;20012;-75
2023/06/25 09:14:12;;;;;;;12.88;6.63;;;;;;;31.41;48.47;101437.72;6232674;23;20028;-76
2023/06/25 09:16:48;;;;;;;9.32;6.05;;;;;;;31.13;46.89;101444.97;6244297;23;20016;-75
2023/06/25 09:19:18;;;;;;;13.32;5.85;;;;;;;30.78;48.50;101439.25;6216964;23;20032;-75
2023/06/25 09:21:43;;;;;;;11.23;7.10;;;;;;;31.20;48.26;101442.03;6216664;23;20086;-77
2023/06/25 09:24:21;;;;;;;10.80;6.90;;;;;;;31.66;46.73;101429.00;6217489;23;20451;-76
2023/06/25 09:26:48;;;;;;;14.45;6.30;;;;;;;31.91;47.07;101430.69;6190059;23;20019;-76
2023/06/25 09:29:14;;;;;;;9.50;6.15;;;;;;;31.41;47.20;101425.56;6191512;23;20432;-74
2023/06/25 09:31:47;;;;;;;9.10;6.55;;;;;;;31.73;46.95;101431.72;6216806;23;20012;-75
2023/06/25 09:34:14;;;;;;;12.35;6.85;;;;;;;31.89;45.27;101432.88;6215437;23;20099;-77
2023/06/25 09:36:40;;;;;;;16.00;7.05;;;;;;;31.40;47.86;101427.53;6216515;23;20436;-74
2023/06/25 09:39:07;;;;;;;8.60;5.82;;;;;;;31.98;45.58;101437.06;6192595;23;20008;-74
2023/06/25 09:41:34;;;;;;;10.05;5.60;;;;;;;32.65;42.50;101429.06;6217329;23;20019;-73
2023/06/25 09:44:02;;;;;;;13.73;6.03;;;;;;;31.95;45.10;101420.56;6191941;23;20074;-75
2023/06/25 09:46:30;;;;;;;8.27;5.88;;;;;;;32.39;43.48;101422.88;6193072;23;20057;-74
2023/06/25 09:48:57;;;;;;;8.63;5.85;;;;;;;32.08;45.24;101425.09;6191147;23;20004;-75
2023/06/25 09:51:28;;;;;;;13.02;6.32;;;;;;;32.05;46.39;101420.75;6191982;23;20027;-74
2023/06/25 09:53:57;;;;;;;16.60;5.60;;;;;;;32.11;46.36;101412.41;6241752;23;20004;-73
2023/06/25 09:56:22;;;;;;;9.18;6.03;;;;;;;32.48;45.72;101418.50;6243073;23;20420;-73
2023/06/25 09:58:49;;;;;;;10.00;6.30;;;;;;;32.30;45.02;101416.75;6216398;23;20006;-74
2023/06/25 10:01:15;;;;;;;12.00;6.90;;;;;;;32.73;43.20;101412.50;6242755;23;20012;-75
2023/06/25 10:03:42;;;;;;;9.93;5.63;;;;;;;32.10;45.23;101408.72;6241624;23;20019;-74
2023/06/25 10:06:08;;;;;;;13.07;6.05;;;;;;;32.50;42.91;101412.59;6190022;23;20008;-73
2023/06/25 10:08:36;;;;;;;14.77;6.28;;;;;;;32.40;44.48;101413.25;6213585;23;20745;-77
2023/06/25 10:11:05;;;;;;;6.70;5.65;;;;;;;32.47;45.64;101405.47;6164726;23;20016;-74
2023/06/25 10:13:30;;;;;;;11.63;5.93;;;;;;;32.30;43.41;101401.72;6214301;23;20016;-77
2023/06/25 10:16:03;;;;;;;7.15;6.22;;;;;;;32.70;43.74;101412.16;6216864;23;20012;-74
2023/06/25 10:18:29;;;;;;;8.10;6.05;;;;;;;33.01;42.55;101398.47;6189732;23;20008;-74
2023/06/25 10:20:58;;;;;;;10.13;6.30;;;;;;;32.50;44.75;101392.75;6191319;23;20039;-74
2023/06/25 10:23:24;;;;;;;20.50;6.07;;;;;;;32.51;43.37;101394.47;6190277;23;20015;-74
2023/06/25 10:25:59;;;;;;;9.00;6.55;;;;;;;32.59;44.63;101394.06;6240635;23;20044;-75
2023/06/25 10:28:34;;;;;;;11.32;6.60;;;;;;;32.64;42.70;101387.66;6243482;23;20012;-75
2023/06/25 10:31:10;;;;;;;6.18;5.47;;;;;;;33.49;41.71;101389.31;6217321;23;20062;-76
2023/06/25 10:33:38;;;;;;;7.80;5.45;;;;;;;32.90;41.47;101388.94;6193903;23;20095;-76
2023/06/25 10:36:08;;;;;;;7.28;5.85;;;;;;;32.72;41.42;101379.56;6243279;23;20439;-76
2023/06/25 10:38:33;;;;;;;8.25;6.18;;;;;;;32.55;43.34;101385.22;6216180;23;20015;-76
2023/06/25 10:41:01;;;;;;;9.40;5.90;;;;;;;32.88;42.09;101374.13;6244525;23;20104;-76
2023/06/25 10:43:27;;;;;;;6.95;5.55;;;;;;;32.97;41.65;101376.28;6190885;23;20018;-77
2023/06/25 10:45:54;;;;;;;8.57;5.38;;;;;;;33.14;39.98;101383.91;6190830;23;20008;-76
2023/06/25 10:48:20;;;;;;;7.47;5.57;;;;;;;32.93;39.26;101380.78;6165276;23;20012;-75
2023/06/25 10:50:48;;;;;;;8.60;5.10;;;;;;;33.10;38.09;101371.38;6241946;23;20475;-75
2023/06/25 10:53:17;;;;;;;10.95;5.63;;;;;;;33.06;40.96;101367.31;6191348;23;20004;-76
2023/06/25 10:55:47;;;;;;;10.07;5.60;;;;;;;32.97;39.79;101364.09;6191159;23;20023;-76
2023/06/25 10:58:20;;;;;;;7.45;5.45;;;;;;;33.08;40.48;101365.13;6243224;23;20011;-76
2023/06/25 11:00:51;;;;;;;6.40;5.43;;;;;;;32.98;39.53;101366.66;6241798;23;20015;-76
2023/06/25 11:03:17;;;;;;;9.60;5.28;;;;;;;33.29;38.97;101364.31;6191468;23;20012;-76
2023/06/25 11:05:45;;;;;;;5.97;4.70;;;;;;;33.31;37.67;101355.56;6242892;23;20043;-76